sensor_id;sensor_type;location;lat;lon;timestamp;pressure;altitude;pressure_sealevel;temperature;humidity
13594;BME280;6449;47.666;9.160;2022-07-22T00:01:36;97313.53;;;21.71;82.83
13594;BME280;6449;47.666;9.160;2022-07-22T00:06:30;97310.56;;;21.66;82.97
13594;BME280;6449;47.666;9.160;2022-07-22T00:11:25;97316.19;;;21.71;82.99
13594;BME280;6449;47.666;9.160;2022-07-22T00:16:18;97318.78;;;21.56;83.57
13594;BME280;6449;47.666;9.160;2022-07-22T00:21:12;97306.34;;;21.40;83.18
13594;BME280;6449;47.666;9.160;2022-07-22T00:26:05;97300.88;;;21.34;83.81
13594;BME280;6449;47.666;9.160;2022-07-22T00:31:01;97301.69;;;21.42;83.82
13594;BME280;6449;47.666;9.160;2022-07-22T00:35:54;97295.84;;;21.39;84.08
13594;BME280;6449;47.666;9.160;2022-07-22T00:40:48;97286.69;;;21.41;83.62
13594;BME280;6449;47.666;9.160;2022-07-22T00:45:41;97295.28;;;21.52;83.20
13594;BME280;6449;47.666;9.160;2022-07-22T00:50:36;97292.19;;;21.40;83.24
13594;BME280;6449;47.666;9.160;2022-07-22T00:55:30;97295.72;;;21.32;83.78
13594;BME280;6449;47.666;9.160;2022-07-22T01:00:25;97288.03;;;21.37;83.12
13594;BME280;6449;47.666;9.160;2022-07-22T01:05:19;97290.38;;;21.24;83.88
13594;BME280;6449;47.666;9.160;2022-07-22T01:10:14;97279.25;;;21.21;83.38
13594;BME280;6449;47.666;9.160;2022-07-22T01:15:09;97280.09;;;21.13;84.06
13594;BME280;6449;47.666;9.160;2022-07-22T01:20:06;97279.00;;;20.99;84.21
13594;BME280;6449;47.666;9.160;2022-07-22T01:24:59;97275.53;;;20.90;85.36
13594;BME280;6449;47.666;9.160;2022-07-22T01:29:53;97266.66;;;21.06;85.22
13594;BME280;6449;47.666;9.160;2022-07-22T01:34:46;97271.84;;;21.00;85.16
13594;BME280;6449;47.666;9.160;2022-07-22T01:39:41;97272.19;;;20.97;85.30
13594;BME280;6449;47.666;9.160;2022-07-22T01:44:35;97267.53;;;20.99;84.98
13594;BME280;6449;47.666;9.160;2022-07-22T01:49:28;97267.88;;;20.87;85.58
13594;BME280;6449;47.666;9.160;2022-07-22T01:54:22;97272.22;;;20.88;86.16
13594;BME280;6449;47.666;9.160;2022-07-22T01:59:17;97275.53;;;20.82;86.61
13594;BME280;6449;47.666;9.160;2022-07-22T02:04:12;97269.25;;;20.83;85.89
13594;BME280;6449;47.666;9.160;2022-07-22T02:09:07;97279.38;;;20.88;85.34
13594;BME280;6449;47.666;9.160;2022-07-22T02:14:01;97275.59;;;20.74;86.56
13594;BME280;6449;47.666;9.160;2022-07-22T02:18:57;97270.59;;;20.71;86.08
13594;BME280;6449;47.666;9.160;2022-07-22T02:23:52;97268.56;;;20.81;85.64
13594;BME280;6449;47.666;9.160;2022-07-22T02:28:46;97255.44;;;20.72;86.74
13594;BME280;6449;47.666;9.160;2022-07-22T02:33:40;97258.97;;;20.56;86.68
13594;BME280;6449;47.666;9.160;2022-07-22T02:38:36;97256.44;;;20.71;85.79
13594;BME280;6449;47.666;9.160;2022-07-22T02:43:31;97261.63;;;20.64;85.74
13594;BME280;6449;47.666;9.160;2022-07-22T02:48:24;97258.97;;;20.64;85.47
13594;BME280;6449;47.666;9.160;2022-07-22T02:53:19;97260.47;;;20.50;85.69
13594;BME280;6449;47.666;9.160;2022-07-22T02:58:14;97260.81;;;20.39;86.40
13594;BME280;6449;47.666;9.160;2022-07-22T03:03:08;97268.97;;;20.37;86.16
13594;BME280;6449;47.666;9.160;2022-07-22T03:08:01;97263.97;;;20.34;86.55
13594;BME280;6449;47.666;9.160;2022-07-22T03:12:56;97266.97;;;20.31;86.59
13594;BME280;6449;47.666;9.160;2022-07-22T03:17:52;97260.81;;;20.23;86.43
13594;BME280;6449;47.666;9.160;2022-07-22T03:22:46;97255.16;;;20.26;86.54
13594;BME280;6449;47.666;9.160;2022-07-22T03:27:40;97263.47;;;20.23;87.12
13594;BME280;6449;47.666;9.160;2022-07-22T03:32:34;97260.66;;;20.08;86.53
13594;BME280;6449;47.666;9.160;2022-07-22T03:37:29;97262.84;;;20.04;88.18
13594;BME280;6449;47.666;9.160;2022-07-22T03:42:22;97265.31;;;20.06;88.22
13594;BME280;6449;47.666;9.160;2022-07-22T03:47:18;97268.16;;;20.04;87.89
13594;BME280;6449;47.666;9.160;2022-07-22T03:52:12;97264.84;;;20.10;87.45
13594;BME280;6449;47.666;9.160;2022-07-22T03:57:07;97262.50;;;20.07;86.77
13594;BME280;6449;47.666;9.160;2022-07-22T04:02:01;97258.53;;;19.87;87.56
13594;BME280;6449;47.666;9.160;2022-07-22T04:06:55;97262.16;;;19.78;89.47
13594;BME280;6449;47.666;9.160;2022-07-22T04:11:48;97253.19;;;19.95;88.01
13594;BME280;6449;47.666;9.160;2022-07-22T04:16:44;97251.00;;;19.91;88.53
13594;BME280;6449;47.666;9.160;2022-07-22T04:21:38;97251.38;;;19.87;89.93
13594;BME280;6449;47.666;9.160;2022-07-22T04:26:32;97247.00;;;19.86;89.92
13594;BME280;6449;47.666;9.160;2022-07-22T04:31:25;97245.53;;;20.00;89.62
13594;BME280;6449;47.666;9.160;2022-07-22T04:36:20;97242.19;;;20.06;88.65
13594;BME280;6449;47.666;9.160;2022-07-22T04:41:13;97240.03;;;20.02;89.27
13594;BME280;6449;47.666;9.160;2022-07-22T04:46:11;97236.38;;;20.11;89.86
13594;BME280;6449;47.666;9.160;2022-07-22T04:51:05;97246.31;;;20.33;89.81
13594;BME280;6449;47.666;9.160;2022-07-22T04:56:00;97243.78;;;20.64;89.13
13594;BME280;6449;47.666;9.160;2022-07-22T05:00:53;97239.59;;;20.78;89.46
13594;BME280;6449;47.666;9.160;2022-07-22T05:05:47;97250.03;;;20.96;89.16
13594;BME280;6449;47.666;9.160;2022-07-22T05:10:40;97240.41;;;21.18;89.22
13594;BME280;6449;47.666;9.160;2022-07-22T05:15:35;97232.09;;;21.52;88.31
13594;BME280;6449;47.666;9.160;2022-07-22T05:20:28;97235.72;;;21.82;87.49
13594;BME280;6449;47.666;9.160;2022-07-22T05:25:22;97234.66;;;21.91;86.53
13594;BME280;6449;47.666;9.160;2022-07-22T05:30:15;97239.22;;;22.06;85.49
13594;BME280;6449;47.666;9.160;2022-07-22T05:35:16;97239.19;;;22.29;84.65
13594;BME280;6449;47.666;9.160;2022-07-22T05:40:11;97238.94;;;22.38;84.47
13594;BME280;6449;47.666;9.160;2022-07-22T05:45:06;97233.59;;;22.38;85.25
13594;BME280;6449;47.666;9.160;2022-07-22T05:49:59;97226.50;;;22.45;81.78
13594;BME280;6449;47.666;9.160;2022-07-22T05:54:54;97228.41;;;22.22;82.73
13594;BME280;6449;47.666;9.160;2022-07-22T05:59:48;97227.09;;;22.18;81.74
13594;BME280;6449;47.666;9.160;2022-07-22T06:04:42;97235.41;;;22.23;81.47
13594;BME280;6449;47.666;9.160;2022-07-22T06:09:35;97230.69;;;22.25;81.76
13594;BME280;6449;47.666;9.160;2022-07-22T06:14:30;97237.16;;;22.16;81.93
13594;BME280;6449;47.666;9.160;2022-07-22T06:19:24;97235.13;;;22.18;84.33
13594;BME280;6449;47.666;9.160;2022-07-22T06:24:17;97238.81;;;22.17;82.40
13594;BME280;6449;47.666;9.160;2022-07-22T06:29:17;97235.31;;;22.16;80.42
13594;BME280;6449;47.666;9.160;2022-07-22T06:34:12;97237.41;;;22.21;79.01
13594;BME280;6449;47.666;9.160;2022-07-22T06:39:05;97243.41;;;22.23;79.95
13594;BME280;6449;47.666;9.160;2022-07-22T06:43:58;97239.00;;;22.30;80.88
13594;BME280;6449;47.666;9.160;2022-07-22T06:48:52;97242.06;;;22.42;77.76
13594;BME280;6449;47.666;9.160;2022-07-22T06:53:51;97239.59;;;22.55;76.78
13594;BME280;6449;47.666;9.160;2022-07-22T06:58:45;97233.44;;;22.69;75.19
13594;BME280;6449;47.666;9.160;2022-07-22T07:03:38;97230.22;;;22.89;73.82
13594;BME280;6449;47.666;9.160;2022-07-22T07:08:31;97228.91;;;22.99;71.63
13594;BME280;6449;47.666;9.160;2022-07-22T07:13:26;97227.47;;;23.33;70.00
13594;BME280;6449;47.666;9.160;2022-07-22T07:18:19;97222.78;;;23.57;70.36
13594;BME280;6449;47.666;9.160;2022-07-22T07:23:13;97227.03;;;23.87;69.15
13594;BME280;6449;47.666;9.160;2022-07-22T07:28:08;97224.19;;;24.17;68.04
13594;BME280;6449;47.666;9.160;2022-07-22T07:33:03;97214.41;;;24.30;66.28
13594;BME280;6449;47.666;9.160;2022-07-22T07:37:56;97212.34;;;24.61;64.92
13594;BME280;6449;47.666;9.160;2022-07-22T07:42:49;97207.78;;;24.89;64.59
13594;BME280;6449;47.666;9.160;2022-07-22T07:47:54;97214.78;;;24.90;63.82
13594;BME280;6449;47.666;9.160;2022-07-22T07:52:49;97202.06;;;25.05;64.15
13594;BME280;6449;47.666;9.160;2022-07-22T07:57:44;97198.03;;;25.23;63.17
13594;BME280;6449;47.666;9.160;2022-07-22T08:02:42;97186.72;;;25.41;63.26
13594;BME280;6449;47.666;9.160;2022-07-22T08:07:37;97184.47;;;25.38;61.65
13594;BME280;6449;47.666;9.160;2022-07-22T08:12:33;97178.50;;;25.49;62.86
13594;BME280;6449;47.666;9.160;2022-07-22T08:17:27;97173.63;;;25.79;63.14
13594;BME280;6449;47.666;9.160;2022-07-22T08:22:20;97174.66;;;25.91;61.14
13594;BME280;6449;47.666;9.160;2022-07-22T08:27:14;97176.72;;;26.16;60.70
13594;BME280;6449;47.666;9.160;2022-07-22T08:32:08;97163.63;;;26.52;58.48
13594;BME280;6449;47.666;9.160;2022-07-22T08:37:04;97160.69;;;26.74;58.29
13594;BME280;6449;47.666;9.160;2022-07-22T08:41:57;97159.59;;;26.88;57.87
13594;BME280;6449;47.666;9.160;2022-07-22T08:46:51;97148.78;;;27.01;56.54
13594;BME280;6449;47.666;9.160;2022-07-22T08:51:46;97150.25;;;26.97;55.90
13594;BME280;6449;47.666;9.160;2022-07-22T08:56:39;97142.94;;;27.18;58.02
13594;BME280;6449;47.666;9.160;2022-07-22T09:01:34;97141.16;;;27.36;55.15
13594;BME280;6449;47.666;9.160;2022-07-22T09:06:28;97139.03;;;27.45;55.08
13594;BME280;6449;47.666;9.160;2022-07-22T09:11:29;97135.75;;;27.68;54.69
13594;BME280;6449;47.666;9.160;2022-07-22T09:16:41;97126.47;;;27.71;55.21
13594;BME280;6449;47.666;9.160;2022-07-22T09:21:38;97127.09;;;27.91;54.55
13594;BME280;6449;47.666;9.160;2022-07-22T09:26:36;97128.72;;;27.99;55.60
13594;BME280;6449;47.666;9.160;2022-07-22T09:31:32;97111.81;;;28.10;53.48
13594;BME280;6449;47.666;9.160;2022-07-22T09:36:28;97110.41;;;28.26;51.88
13594;BME280;6449;47.666;9.160;2022-07-22T09:41:22;97107.38;;;28.59;52.39
13594;BME280;6449;47.666;9.160;2022-07-22T09:46:34;97095.91;;;28.82;51.04
13594;BME280;6449;47.666;9.160;2022-07-22T09:51:30;97093.78;;;28.84;50.84
13594;BME280;6449;47.666;9.160;2022-07-22T09:56:24;97098.13;;;28.85;50.97
13594;BME280;6449;47.666;9.160;2022-07-22T10:01:20;97083.31;;;28.94;49.91
13594;BME280;6449;47.666;9.160;2022-07-22T10:06:14;97072.81;;;29.16;48.55
13594;BME280;6449;47.666;9.160;2022-07-22T10:11:08;97060.78;;;29.42;49.28
13594;BME280;6449;47.666;9.160;2022-07-22T10:16:02;97062.72;;;29.53;48.82
13594;BME280;6449;47.666;9.160;2022-07-22T10:21:07;97058.16;;;29.65;49.21
13594;BME280;6449;47.666;9.160;2022-07-22T10:26:03;97053.47;;;29.72;48.04
13594;BME280;6449;47.666;9.160;2022-07-22T10:31:20;97053.44;;;30.08;48.06
13594;BME280;6449;47.666;9.160;2022-07-22T10:36:31;97037.00;;;29.86;47.36
13594;BME280;6449;47.666;9.160;2022-07-22T10:41:34;97041.44;;;30.04;47.46
13594;BME280;6449;47.666;9.160;2022-07-22T10:46:49;97036.41;;;30.19;45.94
13594;BME280;6449;47.666;9.160;2022-07-22T10:52:12;97044.06;;;30.22;48.03
13594;BME280;6449;47.666;9.160;2022-07-22T10:57:29;97029.44;;;30.35;46.75
13594;BME280;6449;47.666;9.160;2022-07-22T11:02:29;97025.25;;;30.15;46.61
13594;BME280;6449;47.666;9.160;2022-07-22T11:07:24;97018.47;;;30.41;47.48
13594;BME280;6449;47.666;9.160;2022-07-22T11:12:20;97003.16;;;30.59;43.17
13594;BME280;6449;47.666;9.160;2022-07-22T11:17:13;97006.06;;;30.57;44.79
13594;BME280;6449;47.666;9.160;2022-07-22T11:22:10;97003.25;;;30.64;44.89
13594;BME280;6449;47.666;9.160;2022-07-22T11:27:13;96997.84;;;30.92;44.36
13594;BME280;6449;47.666;9.160;2022-07-22T11:32:10;96987.03;;;31.09;43.55
13594;BME280;6449;47.666;9.160;2022-07-22T11:37:04;96988.88;;;31.37;43.85
13594;BME280;6449;47.666;9.160;2022-07-22T11:41:59;96965.72;;;31.46;41.03
13594;BME280;6449;47.666;9.160;2022-07-22T11:46:54;96951.91;;;31.48;39.68
13594;BME280;6449;47.666;9.160;2022-07-22T11:51:51;96955.84;;;31.57;40.79
13594;BME280;6449;47.666;9.160;2022-07-22T11:56:45;96949.78;;;31.50;41.08
13594;BME280;6449;47.666;9.160;2022-07-22T12:01:38;96943.22;;;31.46;42.90
13594;BME280;6449;47.666;9.160;2022-07-22T12:06:36;96930.56;;;31.51;40.33
13594;BME280;6449;47.666;9.160;2022-07-22T12:11:31;96933.13;;;31.41;40.92
13594;BME280;6449;47.666;9.160;2022-07-22T12:16:29;96931.38;;;31.52;40.81
13594;BME280;6449;47.666;9.160;2022-07-22T12:21:25;96928.44;;;31.37;40.62
13594;BME280;6449;47.666;9.160;2022-07-22T12:26:38;96921.63;;;31.34;40.90
13594;BME280;6449;47.666;9.160;2022-07-22T12:31:42;96924.09;;;31.19;42.14
13594;BME280;6449;47.666;9.160;2022-07-22T12:36:36;96910.63;;;31.24;41.03
13594;BME280;6449;47.666;9.160;2022-07-22T12:41:31;96900.34;;;31.09;39.95
13594;BME280;6449;47.666;9.160;2022-07-22T12:46:24;96901.69;;;30.90;40.53
13594;BME280;6449;47.666;9.160;2022-07-22T12:51:18;96896.75;;;30.87;39.14
13594;BME280;6449;47.666;9.160;2022-07-22T12:56:11;96901.69;;;30.90;41.30
13594;BME280;6449;47.666;9.160;2022-07-22T13:01:08;96889.78;;;30.91;38.49
13594;BME280;6449;47.666;9.160;2022-07-22T13:06:04;96889.59;;;30.97;39.46
13594;BME280;6449;47.666;9.160;2022-07-22T13:11:00;96883.47;;;31.02;38.94
13594;BME280;6449;47.666;9.160;2022-07-22T13:15:53;96881.97;;;30.94;39.59
13594;BME280;6449;47.666;9.160;2022-07-22T13:20:50;96889.34;;;30.99;38.54
13594;BME280;6449;47.666;9.160;2022-07-22T13:25:43;96888.47;;;30.93;39.55
13594;BME280;6449;47.666;9.160;2022-07-22T13:30:37;96880.03;;;30.90;39.72
13594;BME280;6449;47.666;9.160;2022-07-22T13:35:30;96891.16;;;30.93;41.47
13594;BME280;6449;47.666;9.160;2022-07-22T13:40:26;96883.63;;;30.95;41.55
13594;BME280;6449;47.666;9.160;2022-07-22T13:45:20;96868.13;;;30.91;39.69
13594;BME280;6449;47.666;9.160;2022-07-22T13:50:14;96858.66;;;30.93;38.75
13594;BME280;6449;47.666;9.160;2022-07-22T13:55:08;96854.66;;;30.96;38.91
13594;BME280;6449;47.666;9.160;2022-07-22T14:00:05;96856.22;;;30.92;40.12
13594;BME280;6449;47.666;9.160;2022-07-22T14:05:06;96852.09;;;30.89;38.85
13594;BME280;6449;47.666;9.160;2022-07-22T14:10:00;96854.81;;;30.89;37.79
13594;BME280;6449;47.666;9.160;2022-07-22T14:14:54;96855.47;;;30.96;40.36
13594;BME280;6449;47.666;9.160;2022-07-22T14:19:48;96851.94;;;30.96;39.46
13594;BME280;6449;47.666;9.160;2022-07-22T14:24:49;96851.13;;;30.95;41.17
13594;BME280;6449;47.666;9.160;2022-07-22T14:29:43;96855.78;;;31.00;41.37
13594;BME280;6449;47.666;9.160;2022-07-22T14:34:36;96854.16;;;30.99;41.54
13594;BME280;6449;47.666;9.160;2022-07-22T14:39:31;96838.91;;;30.93;37.18
13594;BME280;6449;47.666;9.160;2022-07-22T14:44:24;96840.47;;;31.06;35.77
13594;BME280;6449;47.666;9.160;2022-07-22T14:49:17;96833.88;;;31.01;37.56
13594;BME280;6449;47.666;9.160;2022-07-22T14:54:12;96837.16;;;31.03;37.97
13594;BME280;6449;47.666;9.160;2022-07-22T14:59:07;96834.97;;;31.00;37.54
13594;BME280;6449;47.666;9.160;2022-07-22T15:04:00;96828.97;;;30.98;37.98
13594;BME280;6449;47.666;9.160;2022-07-22T15:08:54;96847.03;;;30.93;40.72
13594;BME280;6449;47.666;9.160;2022-07-22T15:13:48;96824.22;;;31.06;39.48
13594;BME280;6449;47.666;9.160;2022-07-22T15:18:43;96823.78;;;31.14;38.86
13594;BME280;6449;47.666;9.160;2022-07-22T15:23:36;96815.09;;;31.12;37.72
13594;BME280;6449;47.666;9.160;2022-07-22T15:28:30;96809.34;;;31.08;38.17
13594;BME280;6449;47.666;9.160;2022-07-22T15:33:26;96811.41;;;31.01;38.09
13594;BME280;6449;47.666;9.160;2022-07-22T15:38:29;96813.53;;;30.99;39.28
13594;BME280;6449;47.666;9.160;2022-07-22T15:43:22;96810.34;;;31.02;38.06
13594;BME280;6449;47.666;9.160;2022-07-22T15:48:16;96804.09;;;31.01;38.58
13594;BME280;6449;47.666;9.160;2022-07-22T15:53:10;96809.75;;;31.00;38.22
13594;BME280;6449;47.666;9.160;2022-07-22T15:58:04;96803.34;;;30.89;38.79
13594;BME280;6449;47.666;9.160;2022-07-22T16:03:15;96800.44;;;30.91;38.84
13594;BME280;6449;47.666;9.160;2022-07-22T16:08:15;96790.63;;;31.07;38.35
13594;BME280;6449;47.666;9.160;2022-07-22T16:13:10;96794.53;;;31.16;38.59
13594;BME280;6449;47.666;9.160;2022-07-22T16:18:04;96787.25;;;31.16;39.39
13594;BME280;6449;47.666;9.160;2022-07-22T16:22:57;96794.22;;;31.29;39.41
13594;BME280;6449;47.666;9.160;2022-07-22T16:27:51;96782.88;;;31.15;38.41
13594;BME280;6449;47.666;9.160;2022-07-22T16:32:46;96787.03;;;31.01;40.26
13594;BME280;6449;47.666;9.160;2022-07-22T16:37:46;96775.47;;;30.89;38.34
13594;BME280;6449;47.666;9.160;2022-07-22T16:42:40;96773.16;;;30.97;38.49
13594;BME280;6449;47.666;9.160;2022-07-22T16:47:33;96765.53;;;30.94;38.62
13594;BME280;6449;47.666;9.160;2022-07-22T16:52:28;96750.06;;;30.90;36.82
13594;BME280;6449;47.666;9.160;2022-07-22T16:57:22;96743.97;;;30.83;36.32
13594;BME280;6449;47.666;9.160;2022-07-22T17:02:18;96756.78;;;30.70;38.33
13594;BME280;6449;47.666;9.160;2022-07-22T17:07:12;96748.31;;;30.84;38.24
13594;BME280;6449;47.666;9.160;2022-07-22T17:12:08;96757.25;;;30.67;41.00
13594;BME280;6449;47.666;9.160;2022-07-22T17:17:02;96762.44;;;30.69;42.07
13594;BME280;6449;47.666;9.160;2022-07-22T17:21:55;96754.91;;;30.71;41.10
13594;BME280;6449;47.666;9.160;2022-07-22T17:26:49;96746.34;;;30.62;40.52
13594;BME280;6449;47.666;9.160;2022-07-22T17:31:43;96750.88;;;30.40;42.12
13594;BME280;6449;47.666;9.160;2022-07-22T17:36:37;96754.88;;;30.20;43.07
13594;BME280;6449;47.666;9.160;2022-07-22T17:41:31;96746.56;;;30.10;43.05
13594;BME280;6449;47.666;9.160;2022-07-22T17:46:42;96750.81;;;30.06;44.28
13594;BME280;6449;47.666;9.160;2022-07-22T17:51:51;96759.97;;;29.88;45.19
13594;BME280;6449;47.666;9.160;2022-07-22T17:56:48;96769.28;;;29.81;46.32
13594;BME280;6449;47.666;9.160;2022-07-22T18:01:42;96774.97;;;29.67;47.36
13594;BME280;6449;47.666;9.160;2022-07-22T18:26:37;96807.78;;;29.59;44.13
13594;BME280;6449;47.666;9.160;2022-07-22T18:31:32;96815.91;;;29.36;46.23
13594;BME280;6449;47.666;9.160;2022-07-22T18:36:25;96833.41;;;29.21;47.70
13594;BME280;6449;47.666;9.160;2022-07-22T18:41:19;96834.94;;;29.06;47.98
13594;BME280;6449;47.666;9.160;2022-07-22T18:46:14;96834.94;;;28.94;48.70
13594;BME280;6449;47.666;9.160;2022-07-22T18:51:09;96829.03;;;28.74;48.94
13594;BME280;6449;47.666;9.160;2022-07-22T18:56:05;96833.38;;;28.63;49.65
13594;BME280;6449;47.666;9.160;2022-07-22T19:00:58;96842.97;;;28.59;49.13
13594;BME280;6449;47.666;9.160;2022-07-22T19:05:53;96870.50;;;28.49;49.70
13594;BME280;6449;47.666;9.160;2022-07-22T19:10:47;96888.16;;;28.33;52.34
13594;BME280;6449;47.666;9.160;2022-07-22T19:15:42;96884.34;;;28.23;52.97
13594;BME280;6449;47.666;9.160;2022-07-22T19:20:36;96867.50;;;27.97;53.87
13594;BME280;6449;47.666;9.160;2022-07-22T19:25:32;96884.00;;;28.01;55.00
13594;BME280;6449;47.666;9.160;2022-07-22T19:30:25;96894.34;;;27.85;55.50
13594;BME280;6449;47.666;9.160;2022-07-22T19:35:21;96922.75;;;27.88;56.67
13594;BME280;6449;47.666;9.160;2022-07-22T19:41:03;96938.44;;;27.91;56.74
13594;BME280;6449;47.666;9.160;2022-07-22T19:45:57;96973.47;;;27.73;57.01
13594;BME280;6449;47.666;9.160;2022-07-22T19:51:02;96980.81;;;27.84;58.30
13594;BME280;6449;47.666;9.160;2022-07-22T19:56:11;96990.41;;;27.80;59.29
13594;BME280;6449;47.666;9.160;2022-07-22T20:01:05;96994.22;;;27.72;59.49
13594;BME280;6449;47.666;9.160;2022-07-22T20:05:59;96995.16;;;27.59;58.51
13594;BME280;6449;47.666;9.160;2022-07-22T20:10:53;96995.19;;;27.53;58.31
13594;BME280;6449;47.666;9.160;2022-07-22T20:15:50;97004.97;;;27.47;58.77
13594;BME280;6449;47.666;9.160;2022-07-22T20:20:45;97000.22;;;27.49;57.08
13594;BME280;6449;47.666;9.160;2022-07-22T20:25:39;97012.00;;;27.48;58.25
13594;BME280;6449;47.666;9.160;2022-07-22T20:30:58;96992.00;;;27.37;56.26
13594;BME280;6449;47.666;9.160;2022-07-22T20:36:05;96978.50;;;27.19;56.52
13594;BME280;6449;47.666;9.160;2022-07-22T20:40:58;96980.25;;;27.07;56.49
13594;BME280;6449;47.666;9.160;2022-07-22T20:52:12;97003.97;;;26.85;57.24
13594;BME280;6449;47.666;9.160;2022-07-22T20:57:06;97027.06;;;26.61;59.83
13594;BME280;6449;47.666;9.160;2022-07-22T21:02:00;97031.03;;;26.58;60.58
13594;BME280;6449;47.666;9.160;2022-07-22T21:07:03;97023.09;;;26.70;60.74
13594;BME280;6449;47.666;9.160;2022-07-22T21:11:58;97024.53;;;26.73;59.59
13594;BME280;6449;47.666;9.160;2022-07-22T21:16:52;97028.72;;;26.62;59.37
13594;BME280;6449;47.666;9.160;2022-07-22T21:21:45;97034.97;;;26.56;57.75
13594;BME280;6449;47.666;9.160;2022-07-22T21:26:39;97051.31;;;26.54;57.43
13594;BME280;6449;47.666;9.160;2022-07-22T21:31:33;97064.16;;;26.39;56.85
13594;BME280;6449;47.666;9.160;2022-07-22T21:36:27;97080.50;;;26.51;57.72
13594;BME280;6449;47.666;9.160;2022-07-22T21:41:20;97074.06;;;26.58;57.12
13594;BME280;6449;47.666;9.160;2022-07-22T21:46:14;97085.78;;;26.71;58.20
13594;BME280;6449;47.666;9.160;2022-07-22T21:51:10;97085.19;;;26.62;58.23
13594;BME280;6449;47.666;9.160;2022-07-22T21:56:04;97084.34;;;26.68;57.47
13594;BME280;6449;47.666;9.160;2022-07-22T22:01:15;97104.84;;;26.62;59.65
13594;BME280;6449;47.666;9.160;2022-07-22T22:06:10;97100.66;;;26.73;59.00
13594;BME280;6449;47.666;9.160;2022-07-22T22:11:04;97105.59;;;26.83;58.59
13594;BME280;6449;47.666;9.160;2022-07-22T22:15:57;97088.03;;;26.80;56.68
13594;BME280;6449;47.666;9.160;2022-07-22T22:20:51;97088.03;;;26.74;56.53
13594;BME280;6449;47.666;9.160;2022-07-22T22:26:02;97079.25;;;26.47;56.86
13594;BME280;6449;47.666;9.160;2022-07-22T22:31:45;97072.84;;;26.54;58.68
13594;BME280;6449;47.666;9.160;2022-07-22T22:36:41;97102.78;;;26.64;57.08
13594;BME280;6449;47.666;9.160;2022-07-22T22:41:36;97218.25;;;26.46;59.81
13594;BME280;6449;47.666;9.160;2022-07-22T22:46:30;97268.50;;;26.39;59.72
13594;BME280;6449;47.666;9.160;2022-07-22T22:51:24;97392.59;;;25.40;76.92
13594;BME280;6449;47.666;9.160;2022-07-22T22:56:18;97423.03;;;22.71;89.92
13594;BME280;6449;47.666;9.160;2022-07-22T23:01:13;97327.91;;;20.67;100.00
13594;BME280;6449;47.666;9.160;2022-07-22T23:06:07;97301.75;;;20.62;100.00
13594;BME280;6449;47.666;9.160;2022-07-22T23:11:00;97246.78;;;20.70;100.00
13594;BME280;6449;47.666;9.160;2022-07-22T23:31:28;97147.38;;;21.54;100.00
13594;BME280;6449;47.666;9.160;2022-07-22T23:36:21;97136.03;;;21.75;100.00
13594;BME280;6449;47.666;9.160;2022-07-22T23:41:16;97140.69;;;21.73;100.00
13594;BME280;6449;47.666;9.160;2022-07-22T23:46:09;97136.59;;;21.85;100.00
13594;BME280;6449;47.666;9.160;2022-07-22T23:51:05;97135.88;;;21.91;100.00
13594;BME280;6449;47.666;9.160;2022-07-22T23:55:58;97131.44;;;21.98;100.00
